CYHM

John C. Munro Hamilton International Airport

Hamilton, Ontario, Canada
METAR CYHM 100600Z 24005KT 15SM OVC022 M03/M05 A3018 RMK SC8 SLP234
Observed Flight Rules
Dec-10 @ 06:00 UTC (29 minutes ago) Marginal Visual Flight Rules
Wind Visibility Clouds
240° at 5 knots 15 miles
  • Overcast at 2,200' AGL
Temperatures Readings
Current -3°C / 27°F
Dewpoint -5°C / 23°F
Humidity 86%
Altimeter 30.18" Hg
Pressure 1023.4 hPa
Elevation 238
METAR CYHM 100600Z 24005KT 15SM OVC022 M03/M05 A3018 RMK SC8 SLP234
Observed Flight Rules
Dec-10 @ 06:00 UTC
(29 minutes ago)
MVFR
Wind Visibility
240° at 5 knots 15 miles
Clouds
  • Overcast at 2,200' AGL
Temperature Dewpoint
-3°C / 27°F -5°C / 23°F
Humidity Altimeter Pressure
86% 30.18" Hg 1023.4 hPa